createdAt,value
2022-11-15T00:02:23.594Z,1565.05263
2022-11-15T00:07:53.416Z,1565.05263
2022-11-15T00:12:56.468Z,1227.33333
2022-11-15T00:17:58.077Z,1410.66667
2022-11-15T00:22:59.757Z,1312.88889
2022-11-15T00:28:01.500Z,1176
2022-11-15T00:33:03.158Z,1106.26415
2022-11-15T00:38:04.794Z,988.0678
2022-11-15T00:43:06.768Z,677.33333
2022-11-15T00:48:08.435Z,357.42282
2022-11-15T00:53:10.153Z,255.11111
2022-11-15T00:58:11.788Z,161.66784
2022-11-15T01:04:01.480Z,130.10272
2022-11-15T01:09:03.623Z,186.51969
2022-11-15T01:14:05.312Z,150.71141
2022-11-15T01:19:07.245Z,116.54902
2022-11-15T01:24:08.968Z,109.5914
2022-11-15T01:29:10.771Z,107.82979
2022-11-15T01:34:12.617Z,116.06704
2022-11-15T01:39:14.399Z,119.49858
2022-11-15T01:44:16.318Z,123.06977
2022-11-15T01:49:18.070Z,152.10811
2022-11-15T01:54:19.853Z,148.65116
2022-11-15T01:59:21.639Z,135.90031
2022-11-15T02:04:23.576Z,128.98498
2022-11-15T02:09:25.255Z,123.06977
2022-11-15T02:14:26.921Z,116.54902
2022-11-15T02:19:28.544Z,138.93671
2022-11-15T02:24:30.219Z,117.03371
2022-11-15T02:29:31.834Z,132.95706
2022-11-15T02:34:33.475Z,188.44444
2022-11-15T02:39:35.905Z,152.10811
2022-11-15T02:44:37.514Z,172.99628
2022-11-15T02:49:39.120Z,190.4
2022-11-15T02:54:40.746Z,237.33333
2022-11-15T02:59:42.404Z,298.02299
2022-11-15T03:04:44.117Z,494
2022-11-15T03:09:45.725Z,514.37037
2022-11-15T03:14:47.412Z,294
2022-11-15T03:19:49.041Z,572.57143
2022-11-15T03:24:50.726Z,592.42105
2022-11-15T03:29:52.401Z,384
2022-11-15T03:34:54.027Z,333.87342
2022-11-15T03:39:55.667Z,440.77419
2022-11-15T03:44:57.461Z,628.44444
2022-11-15T03:49:59.012Z,636.13483
2022-11-15T03:55:00.644Z,799.55556
2022-11-15T04:00:02.680Z,613.56522
2022-11-15T04:05:04.354Z,787.83562
2022-11-15T04:10:06.001Z,1106.26415
2022-11-15T04:15:07.717Z,1201.14286
2022-11-15T04:20:09.800Z,1151.84314
2022-11-15T04:25:11.951Z,849.88235
2022-11-15T04:30:13.632Z,921.77778
2022-11-15T04:35:15.279Z,921.77778
2022-11-15T04:40:17.325Z,988.0678
2022-11-15T04:45:19.419Z,1128.61538
2022-11-15T04:50:21.061Z,1176
2022-11-15T04:55:22.705Z,1024.70175
2022-11-15T05:00:24.650Z,1044
2022-11-15T05:05:26.722Z,1151.84314
2022-11-15T05:10:28.621Z,1176
2022-11-15T05:15:30.316Z,1254.6383
2022-11-15T05:20:32.108Z,1283.13043
2022-11-15T05:25:33.940Z,1410.66667
2022-11-15T05:30:35.786Z,1608.86486
2022-11-15T05:35:37.513Z,1565.05263
2022-11-15T05:40:39.164Z,1484
2022-11-15T05:45:41.165Z,1655.11111
2022-11-15T05:50:42.890Z,1655.11111
2022-11-15T05:55:44.794Z,1655.11111
2022-11-15T06:00:46.664Z,1312.88889
2022-11-15T06:05:48.372Z,1312.88889
2022-11-15T06:10:50.070Z,1084.74074
2022-11-15T06:15:51.817Z,1376.55814
2022-11-15T06:20:53.744Z,1523.48718
2022-11-15T06:25:55.436Z,1523.48718
2022-11-15T06:30:57.082Z,1376.55814
2022-11-15T06:35:58.730Z,1608.86486
2022-11-15T06:41:00.472Z,1655.11111
2022-11-15T06:46:02.136Z,1608.86486
2022-11-15T06:51:03.811Z,1376.55814
2022-11-15T06:56:05.466Z,1565.05263
2022-11-15T07:01:07.327Z,1446.43902
2022-11-15T07:06:09.090Z,1565.05263
2022-11-15T07:11:10.674Z,1565.05263
2022-11-15T07:16:12.461Z,1410.66667
2022-11-15T07:21:14.125Z,1344
2022-11-15T07:26:15.915Z,1376.55814
2022-11-15T07:31:17.788Z,1410.66667
2022-11-15T07:36:19.429Z,1484
2022-11-15T07:41:21.062Z,1704
2022-11-15T07:46:22.746Z,1755.76471
2022-11-15T07:51:24.400Z,1565.05263
2022-11-15T07:56:26.070Z,1484
2022-11-15T08:01:28.473Z,1704
2022-11-15T08:06:30.205Z,1755.76471
2022-11-15T08:11:31.902Z,1655.11111
2022-11-15T08:16:33.540Z,1523.48718
2022-11-15T08:21:35.176Z,1410.66667
2022-11-15T08:26:36.898Z,1344
2022-11-15T08:31:38.494Z,1312.88889
2022-11-15T08:36:45.656Z,1312.88889
2022-11-15T08:41:48.196Z,1376.55814
2022-11-15T08:46:49.872Z,1410.66667
2022-11-15T08:51:51.507Z,1484
2022-11-15T08:56:53.185Z,1484
2022-11-15T09:01:54.932Z,1523.48718
2022-11-15T09:06:56.935Z,1565.05263
2022-11-15T09:12:02.688Z,1523.48718
2022-11-15T09:17:05.300Z,1655.11111
2022-11-15T09:22:06.987Z,1484
2022-11-15T09:27:08.689Z,1565.05263
2022-11-15T09:32:11.592Z,1704
2022-11-15T09:37:29.894Z,1523.48718
2022-11-15T09:42:38.216Z,1446.43902
2022-11-15T09:47:42.244Z,1655.11111
2022-11-15T09:52:46.364Z,1523.48718
2022-11-15T09:57:48.202Z,1704
2022-11-15T10:02:49.948Z,1810.66667
2022-11-15T10:07:51.721Z,1523.48718
2022-11-15T10:12:53.509Z,1704
2022-11-15T10:17:55.263Z,1810.66667
2022-11-15T10:22:57.038Z,1655.11111
2022-11-15T10:27:58.892Z,1704
2022-11-15T10:33:00.573Z,1565.05263
2022-11-15T10:38:02.301Z,1376.55814
2022-11-15T10:43:04.670Z,1410.66667
2022-11-15T10:48:06.553Z,1484
2022-11-15T10:53:08.204Z,1565.05263
2022-11-15T10:58:09.856Z,1810.66667
2022-11-15T11:03:11.680Z,1608.86486
2022-11-15T11:08:13.382Z,1565.05263
2022-11-15T11:13:15.090Z,1810.66667
2022-11-15T11:18:16.747Z,1810.66667
2022-11-15T11:23:18.425Z,1704
2022-11-15T11:28:20.032Z,1755.76471
2022-11-15T11:33:21.635Z,1931.09677
2022-11-15T11:38:23.260Z,1997.33333
2022-11-15T11:43:24.895Z,1704
2022-11-15T11:48:27.213Z,1704
2022-11-15T11:53:29.076Z,1704
2022-11-15T11:58:31.042Z,1755.76471
2022-11-15T12:03:33.079Z,1655.11111
2022-11-15T12:08:35.458Z,1565.05263
2022-11-15T12:13:37.361Z,1997.33333
2022-11-15T12:18:39.231Z,1755.76471
2022-11-15T12:23:42.501Z,1931.09677
2022-11-15T12:29:05.899Z,1565.05263
2022-11-15T12:34:09.734Z,1565.05263
2022-11-15T12:39:12.798Z,1410.66667
2022-11-15T12:44:15.074Z,1484
2022-11-15T12:49:18.224Z,1704
2022-11-15T12:54:26.025Z,1810.66667
2022-11-15T12:59:27.839Z,1704
2022-11-15T13:04:30.385Z,1704
2022-11-15T13:09:34.112Z,1755.76471
2022-11-15T13:14:40.854Z,1704
2022-11-15T13:19:42.654Z,1869
2022-11-15T13:24:50.459Z,1810.66667
2022-11-15T13:29:52.213Z,1869
2022-11-15T13:34:55.025Z,1997.33333
2022-11-15T13:39:56.793Z,1931.09677
2022-11-15T13:44:58.495Z,1997.33333
2022-11-15T13:50:00.143Z,2068.13793
2022-11-15T13:55:02.088Z,1869
2022-11-15T14:00:03.905Z,1755.76471
2022-11-15T14:05:05.607Z,1810.66667
2022-11-15T14:10:07.361Z,1810.66667
2022-11-15T14:15:09.059Z,1869
2022-11-15T14:20:10.975Z,1704
2022-11-15T14:25:12.651Z,1523.48718
2022-11-15T14:30:14.235Z,1755.76471
2022-11-15T14:35:15.994Z,1931.09677
2022-11-15T14:40:17.638Z,1931.09677
2022-11-15T14:45:19.225Z,1810.66667
2022-11-15T14:50:20.884Z,1704
2022-11-15T14:55:22.581Z,1446.43902
2022-11-15T15:00:24.220Z,1376.55814
2022-11-15T15:05:26.229Z,1312.88889
2022-11-15T15:10:40.058Z,1484
2022-11-15T15:15:43.019Z,1344
2022-11-15T15:20:44.689Z,1410.66667
2022-11-15T15:25:46.595Z,1484
2022-11-15T15:30:48.443Z,1227.33333
2022-11-15T15:35:50.163Z,1655.11111
2022-11-15T15:40:52.709Z,1523.48718
2022-11-15T15:45:54.386Z,1931.09677
2022-11-15T15:50:56.155Z,1484
2022-11-15T15:55:57.776Z,1704
2022-11-15T16:00:59.463Z,2225.48148
2022-11-15T16:06:01.117Z,2225.48148
2022-11-15T16:11:02.872Z,1869
2022-11-15T16:16:04.541Z,1810.66667
2022-11-15T16:21:06.237Z,1344
2022-11-15T16:26:07.911Z,1931.09677
2022-11-15T16:31:09.590Z,2068.13793
2022-11-15T16:36:11.269Z,1997.33333
2022-11-15T16:41:13.007Z,1446.43902
2022-11-15T16:46:14.651Z,1410.66667
2022-11-15T16:51:16.310Z,1608.86486
2022-11-15T16:56:17.962Z,1810.66667
2022-11-15T17:01:19.775Z,1655.11111
2022-11-15T17:06:21.426Z,1755.76471
2022-11-15T17:11:23.176Z,1655.11111
2022-11-15T17:16:25.028Z,1931.09677
2022-11-15T17:21:31.030Z,1755.76471
2022-11-15T17:26:40.315Z,1565.05263
2022-11-15T17:31:42.580Z,1484
2022-11-15T17:36:44.140Z,1810.66667
2022-11-15T17:41:45.769Z,1997.33333
2022-11-15T17:46:47.420Z,1446.43902
2022-11-15T17:51:50.289Z,1810.66667
2022-11-15T17:56:52.085Z,2144
2022-11-15T18:01:53.753Z,1755.76471
2022-11-15T18:06:55.463Z,1704
2022-11-15T18:11:57.236Z,2144
2022-11-15T18:16:58.860Z,1997.33333
2022-11-15T18:22:01.581Z,1608.86486
2022-11-15T18:27:03.541Z,1446.43902
2022-11-15T18:32:05.177Z,1201.14286
2022-11-15T18:37:06.813Z,1376.55814
2022-11-15T18:42:08.504Z,1312.88889
2022-11-15T18:47:10.174Z,1523.48718
2022-11-15T18:52:11.790Z,1655.11111
2022-11-15T18:57:13.615Z,1810.66667
2022-11-15T19:02:15.235Z,1704
2022-11-15T19:07:16.958Z,1565.05263
2022-11-15T19:12:18.670Z,1810.66667
2022-11-15T19:17:20.271Z,1810.66667
2022-11-15T19:22:22.019Z,1931.09677
2022-11-15T19:27:23.689Z,1869
2022-11-15T19:32:25.467Z,1997.33333
2022-11-15T19:37:27.817Z,1997.33333
2022-11-15T19:42:29.977Z,2068.13793
2022-11-15T19:47:32.038Z,1931.09677
2022-11-15T19:52:33.650Z,2144
2022-11-15T19:57:35.514Z,1755.76471
2022-11-15T20:02:37.196Z,1704
2022-11-15T20:07:38.925Z,1869
2022-11-15T20:12:40.624Z,1655.11111
2022-11-15T20:17:42.301Z,1608.86486
2022-11-15T20:22:44.008Z,1565.05263
2022-11-15T20:27:45.705Z,1344
2022-11-15T20:32:47.352Z,1446.43902
2022-11-15T20:37:49.018Z,1655.11111
2022-11-15T20:42:50.653Z,1655.11111
2022-11-15T20:47:52.296Z,1608.86486
2022-11-15T20:52:53.916Z,1523.48718
2022-11-15T20:57:55.564Z,1608.86486
2022-11-15T21:02:57.165Z,1523.48718
2022-11-15T21:07:58.896Z,1376.55814
2022-11-15T21:13:01.935Z,1484
2022-11-15T21:18:03.732Z,1655.11111
2022-11-15T21:23:05.425Z,1997.33333
2022-11-15T21:28:07.721Z,2068.13793
2022-11-15T21:33:09.658Z,1608.86486
2022-11-15T21:38:11.404Z,1565.05263
2022-11-15T21:43:13.012Z,1755.76471
2022-11-15T21:48:14.653Z,1608.86486
2022-11-15T21:53:16.293Z,1410.66667
2022-11-15T21:58:17.978Z,1283.13043
2022-11-15T22:03:19.620Z,1484
2022-11-15T22:08:21.862Z,1344
2022-11-15T22:13:23.469Z,1704
2022-11-15T22:18:26.599Z,1344
2022-11-15T22:23:28.503Z,1312.88889
2022-11-15T22:28:30.223Z,1254.6383
2022-11-15T22:33:32.063Z,1283.13043
2022-11-15T22:38:33.950Z,1227.33333
2022-11-15T22:43:35.784Z,1044
2022-11-15T22:48:38.101Z,1106.26415
2022-11-15T22:53:40.336Z,1084.74074
2022-11-15T22:58:41.962Z,1283.13043
2022-11-15T23:03:43.767Z,1565.05263
2022-11-15T23:08:45.476Z,1565.05263
2022-11-15T23:13:47.158Z,1565.05263
2022-11-15T23:18:48.845Z,1565.05263
2022-11-15T23:23:50.724Z,1523.48718
2022-11-15T23:28:52.474Z,1484
2022-11-15T23:33:54.183Z,1410.66667
2022-11-15T23:38:56.173Z,1176
2022-11-15T23:43:57.730Z,1084.74074
2022-11-15T23:48:59.345Z,891.69231
2022-11-15T23:54:00.991Z,799.55556
2022-11-15T23:59:02.582Z,921.77778
